Terminal Aerodrome Forecast
Issued by NWS

Current Version | Previous Version | Graphics & Text | Print | Product List | Glossary On
Versions: 1 2 3 4 5 6 7 8 9 10 11 12 13 14 15 16
000
FTUS41 KILN 211135
TAFLUK
TAF
KLUK 211135Z 2112/2212 00000KT 1/4SM FG VV002
     FM211330 VRB03KT 2SM BR BKN003
     FM211400 15004KT P6SM SCT040 BKN250
     FM212300 09005KT P6SM SCT250
     FM220400 00000KT 3SM BR SCT250
     FM220700 00000KT 1/2SM FG VV002=

USA.gov is the U.S. government's official web portal to all federal, state and local government web resources and services.